Collierville, Tennessee
Current Conditions -  °F | °C
As of 4:15 AM on Wednesday 26 Nov 2014 (Local Time) from KOLV Reporting Station
Clear Clear  
Wind Chill: 28°   Ceiling: Unl
Heat Index: 28°   Visibility: 9mi
Dew Point: 28°   Wind: 0mph
Humidity: 100%   Direction: NA
Pressure: 30.15"   Gusts: NA
Location:  35.04°N, 89.67°W
Report Text: KOLV 261015Z AUTO 00000KT 9SM CLR M02/M02 A3015 RMK A01 P000
Loading
Personal Weather Stations






























Interactive Weather Map New forecast layout! Learn more

10-Day Weather Forecast

Advertisements
Track Severe Weather on mobile